sensor_id;sensor_type;location;lat;lon;timestamp;P1;durP1;ratioP1;P2;durP2;ratioP2
4915;SDS011;70796;52.406;13.230;2023-06-19T00:00:10;15.80;;;14.10;;
4915;SDS011;70796;52.406;13.230;2023-06-19T00:02:43;15.53;;;13.93;;
4915;SDS011;70796;52.406;13.230;2023-06-19T00:05:10;14.97;;;13.50;;
4915;SDS011;70796;52.406;13.230;2023-06-19T00:07:36;15.33;;;13.80;;
4915;SDS011;70796;52.406;13.230;2023-06-19T00:10:03;15.07;;;13.63;;
4915;SDS011;70796;52.406;13.230;2023-06-19T00:12:30;20.00;;;13.73;;
4915;SDS011;70796;52.406;13.230;2023-06-19T00:14:56;16.00;;;14.40;;
4915;SDS011;70796;52.406;13.230;2023-06-19T00:17:23;17.90;;;15.47;;
4915;SDS011;70796;52.406;13.230;2023-06-19T00:19:52;15.27;;;13.77;;
4915;SDS011;70796;52.406;13.230;2023-06-19T00:22:21;16.43;;;14.13;;
4915;SDS011;70796;52.406;13.230;2023-06-19T00:24:48;14.13;;;12.73;;
4915;SDS011;70796;52.406;13.230;2023-06-19T00:27:14;14.77;;;13.17;;
4915;SDS011;70796;52.406;13.230;2023-06-19T00:29:40;20.43;;;13.17;;
4915;SDS011;70796;52.406;13.230;2023-06-19T00:32:07;13.83;;;12.50;;
4915;SDS011;70796;52.406;13.230;2023-06-19T00:34:33;17.90;;;14.80;;
4915;SDS011;70796;52.406;13.230;2023-06-19T00:37:00;15.23;;;13.70;;
4915;SDS011;70796;52.406;13.230;2023-06-19T00:39:26;18.13;;;16.13;;
4915;SDS011;70796;52.406;13.230;2023-06-19T00:41:54;16.57;;;14.87;;
4915;SDS011;70796;52.406;13.230;2023-06-19T00:44:21;17.63;;;14.07;;
4915;SDS011;70796;52.406;13.230;2023-06-19T00:46:47;17.67;;;13.30;;
4915;SDS011;70796;52.406;13.230;2023-06-19T00:49:17;14.70;;;13.30;;
4915;SDS011;70796;52.406;13.230;2023-06-19T00:51:43;14.93;;;13.40;;
4915;SDS011;70796;52.406;13.230;2023-06-19T00:54:12;15.70;;;13.13;;
4915;SDS011;70796;52.406;13.230;2023-06-19T00:56:38;16.10;;;14.50;;
4915;SDS011;70796;52.406;13.230;2023-06-19T00:59:09;15.03;;;12.63;;
4915;SDS011;70796;52.406;13.230;2023-06-19T01:01:38;16.17;;;13.40;;
4915;SDS011;70796;52.406;13.230;2023-06-19T01:04:05;15.63;;;13.97;;
4915;SDS011;70796;52.406;13.230;2023-06-19T01:06:35;15.20;;;13.70;;
4915;SDS011;70796;52.406;13.230;2023-06-19T01:09:08;16.10;;;14.40;;
4915;SDS011;70796;52.406;13.230;2023-06-19T01:11:38;16.83;;;14.77;;
4915;SDS011;70796;52.406;13.230;2023-06-19T01:14:08;16.70;;;14.90;;
4915;SDS011;70796;52.406;13.230;2023-06-19T01:16:38;18.03;;;12.77;;
4915;SDS011;70796;52.406;13.230;2023-06-19T01:19:05;17.20;;;15.40;;
4915;SDS011;70796;52.406;13.230;2023-06-19T01:21:36;16.40;;;14.60;;
4915;SDS011;70796;52.406;13.230;2023-06-19T01:24:03;16.80;;;15.10;;
4915;SDS011;70796;52.406;13.230;2023-06-19T01:26:30;17.80;;;15.57;;
4915;SDS011;70796;52.406;13.230;2023-06-19T01:28:56;18.13;;;15.60;;
4915;SDS011;70796;52.406;13.230;2023-06-19T01:31:25;15.23;;;13.47;;
4915;SDS011;70796;52.406;13.230;2023-06-19T01:33:57;16.80;;;15.00;;
4915;SDS011;70796;52.406;13.230;2023-06-19T01:36:24;16.80;;;15.03;;
4915;SDS011;70796;52.406;13.230;2023-06-19T01:38:51;18.67;;;16.47;;
4915;SDS011;70796;52.406;13.230;2023-06-19T01:41:19;21.80;;;16.63;;
4915;SDS011;70796;52.406;13.230;2023-06-19T01:43:46;18.37;;;15.40;;
4915;SDS011;70796;52.406;13.230;2023-06-19T01:46:13;17.43;;;15.60;;
4915;SDS011;70796;52.406;13.230;2023-06-19T01:48:39;18.47;;;15.57;;
4915;SDS011;70796;52.406;13.230;2023-06-19T01:51:06;18.07;;;16.17;;
4915;SDS011;70796;52.406;13.230;2023-06-19T01:53:32;18.77;;;16.03;;
4915;SDS011;70796;52.406;13.230;2023-06-19T01:56:00;16.37;;;14.67;;
4915;SDS011;70796;52.406;13.230;2023-06-19T01:58:28;17.13;;;15.40;;
4915;SDS011;70796;52.406;13.230;2023-06-19T02:00:54;17.27;;;15.43;;
4915;SDS011;70796;52.406;13.230;2023-06-19T02:03:21;19.17;;;16.13;;
4915;SDS011;70796;52.406;13.230;2023-06-19T02:05:47;18.23;;;16.00;;
4915;SDS011;70796;52.406;13.230;2023-06-19T02:08:13;20.00;;;16.57;;
4915;SDS011;70796;52.406;13.230;2023-06-19T02:10:40;21.43;;;15.80;;
4915;SDS011;70796;52.406;13.230;2023-06-19T02:13:06;17.30;;;14.83;;
4915;SDS011;70796;52.406;13.230;2023-06-19T02:15:32;16.80;;;15.10;;
4915;SDS011;70796;52.406;13.230;2023-06-19T02:17:59;17.30;;;15.60;;
4915;SDS011;70796;52.406;13.230;2023-06-19T02:20:25;17.67;;;15.47;;
4915;SDS011;70796;52.406;13.230;2023-06-19T02:22:54;23.50;;;16.33;;
4915;SDS011;70796;52.406;13.230;2023-06-19T02:25:21;17.80;;;15.90;;
4915;SDS011;70796;52.406;13.230;2023-06-19T02:27:47;16.93;;;15.20;;
4915;SDS011;70796;52.406;13.230;2023-06-19T02:30:14;17.13;;;15.37;;
4915;SDS011;70796;52.406;13.230;2023-06-19T02:32:40;18.00;;;16.20;;
4915;SDS011;70796;52.406;13.230;2023-06-19T02:35:08;18.40;;;16.50;;
4915;SDS011;70796;52.406;13.230;2023-06-19T02:37:35;22.70;;;18.67;;
4915;SDS011;70796;52.406;13.230;2023-06-19T02:40:03;18.80;;;16.83;;
4915;SDS011;70796;52.406;13.230;2023-06-19T02:42:32;17.77;;;15.93;;
4915;SDS011;70796;52.406;13.230;2023-06-19T02:44:59;17.90;;;15.47;;
4915;SDS011;70796;52.406;13.230;2023-06-19T02:47:32;18.77;;;16.77;;
4915;SDS011;70796;52.406;13.230;2023-06-19T02:49:59;19.03;;;15.50;;
4915;SDS011;70796;52.406;13.230;2023-06-19T02:52:27;18.33;;;16.43;;
4915;SDS011;70796;52.406;13.230;2023-06-19T02:54:53;18.27;;;16.07;;
4915;SDS011;70796;52.406;13.230;2023-06-19T02:57:22;22.73;;;16.00;;
4915;SDS011;70796;52.406;13.230;2023-06-19T02:59:49;18.47;;;16.43;;
4915;SDS011;70796;52.406;13.230;2023-06-19T03:02:15;18.50;;;16.57;;
4915;SDS011;70796;52.406;13.230;2023-06-19T03:04:42;20.00;;;17.03;;
4915;SDS011;70796;52.406;13.230;2023-06-19T03:07:10;18.67;;;16.67;;
4915;SDS011;70796;52.406;13.230;2023-06-19T03:09:36;17.57;;;15.13;;
4915;SDS011;70796;52.406;13.230;2023-06-19T03:12:03;17.37;;;15.67;;
4915;SDS011;70796;52.406;13.230;2023-06-19T03:14:29;19.20;;;17.07;;
4915;SDS011;70796;52.406;13.230;2023-06-19T03:16:56;19.63;;;15.50;;
4915;SDS011;70796;52.406;13.230;2023-06-19T03:19:23;22.07;;;16.67;;
4915;SDS011;70796;52.406;13.230;2023-06-19T03:21:49;20.60;;;16.53;;
4915;SDS011;70796;52.406;13.230;2023-06-19T03:24:16;19.80;;;14.83;;
4915;SDS011;70796;52.406;13.230;2023-06-19T03:26:43;17.50;;;15.80;;
4915;SDS011;70796;52.406;13.230;2023-06-19T03:29:09;17.30;;;15.40;;
4915;SDS011;70796;52.406;13.230;2023-06-19T03:31:48;18.30;;;15.57;;
4915;SDS011;70796;52.406;13.230;2023-06-19T03:34:16;15.73;;;14.13;;
4915;SDS011;70796;52.406;13.230;2023-06-19T03:36:42;16.80;;;15.10;;
4915;SDS011;70796;52.406;13.230;2023-06-19T03:39:09;19.90;;;14.43;;
4915;SDS011;70796;52.406;13.230;2023-06-19T03:41:37;16.47;;;14.67;;
4915;SDS011;70796;52.406;13.230;2023-06-19T03:44:03;15.63;;;14.07;;
4915;SDS011;70796;52.406;13.230;2023-06-19T03:46:29;17.50;;;15.57;;
4915;SDS011;70796;52.406;13.230;2023-06-19T03:48:56;16.47;;;14.87;;
4915;SDS011;70796;52.406;13.230;2023-06-19T03:51:22;16.67;;;14.97;;
4915;SDS011;70796;52.406;13.230;2023-06-19T03:53:48;26.83;;;16.60;;
4915;SDS011;70796;52.406;13.230;2023-06-19T03:56:16;16.83;;;15.13;;
4915;SDS011;70796;52.406;13.230;2023-06-19T03:58:42;17.57;;;15.77;;
4915;SDS011;70796;52.406;13.230;2023-06-19T04:01:08;17.57;;;15.77;;
4915;SDS011;70796;52.406;13.230;2023-06-19T04:03:34;17.43;;;15.60;;
4915;SDS011;70796;52.406;13.230;2023-06-19T04:06:01;20.93;;;16.33;;
4915;SDS011;70796;52.406;13.230;2023-06-19T04:08:27;19.23;;;16.50;;
4915;SDS011;70796;52.406;13.230;2023-06-19T04:10:53;19.17;;;16.90;;
4915;SDS011;70796;52.406;13.230;2023-06-19T04:13:19;17.23;;;15.03;;
4915;SDS011;70796;52.406;13.230;2023-06-19T04:15:46;17.57;;;15.87;;
4915;SDS011;70796;52.406;13.230;2023-06-19T04:18:16;18.60;;;14.63;;
4915;SDS011;70796;52.406;13.230;2023-06-19T04:20:42;16.80;;;15.17;;
4915;SDS011;70796;52.406;13.230;2023-06-19T04:23:11;19.13;;;17.23;;
4915;SDS011;70796;52.406;13.230;2023-06-19T04:25:37;18.30;;;15.87;;
4915;SDS011;70796;52.406;13.230;2023-06-19T04:28:03;17.27;;;15.57;;
4915;SDS011;70796;52.406;13.230;2023-06-19T04:30:30;17.40;;;15.60;;
4915;SDS011;70796;52.406;13.230;2023-06-19T04:32:59;16.30;;;14.60;;
4915;SDS011;70796;52.406;13.230;2023-06-19T04:35:26;16.90;;;15.20;;
4915;SDS011;70796;52.406;13.230;2023-06-19T04:37:53;18.40;;;16.60;;
4915;SDS011;70796;52.406;13.230;2023-06-19T04:40:19;18.90;;;17.10;;
4915;SDS011;70796;52.406;13.230;2023-06-19T04:42:46;23.33;;;15.87;;
4915;SDS011;70796;52.406;13.230;2023-06-19T04:45:12;16.30;;;14.70;;
4915;SDS011;70796;52.406;13.230;2023-06-19T04:47:39;17.30;;;15.60;;
4915;SDS011;70796;52.406;13.230;2023-06-19T04:50:18;17.70;;;14.83;;
4915;SDS011;70796;52.406;13.230;2023-06-19T04:52:45;20.77;;;16.87;;
4915;SDS011;70796;52.406;13.230;2023-06-19T04:55:11;19.50;;;16.27;;
4915;SDS011;70796;52.406;13.230;2023-06-19T04:57:38;17.53;;;15.87;;
4915;SDS011;70796;52.406;13.230;2023-06-19T05:00:04;17.20;;;14.57;;
4915;SDS011;70796;52.406;13.230;2023-06-19T05:02:33;19.63;;;16.33;;
4915;SDS011;70796;52.406;13.230;2023-06-19T05:05:00;15.97;;;14.37;;
4915;SDS011;70796;52.406;13.230;2023-06-19T05:07:30;18.20;;;15.73;;
4915;SDS011;70796;52.406;13.230;2023-06-19T05:09:59;17.83;;;16.03;;
4915;SDS011;70796;52.406;13.230;2023-06-19T05:12:26;19.30;;;17.03;;
4915;SDS011;70796;52.406;13.230;2023-06-19T05:14:52;19.63;;;17.50;;
4915;SDS011;70796;52.406;13.230;2023-06-19T05:17:18;21.33;;;17.63;;
4915;SDS011;70796;52.406;13.230;2023-06-19T05:19:45;19.13;;;17.00;;
4915;SDS011;70796;52.406;13.230;2023-06-19T05:22:11;19.60;;;17.70;;
4915;SDS011;70796;52.406;13.230;2023-06-19T05:24:37;18.23;;;16.40;;
4915;SDS011;70796;52.406;13.230;2023-06-19T05:27:04;19.10;;;17.07;;
4915;SDS011;70796;52.406;13.230;2023-06-19T05:29:31;19.40;;;16.73;;
4915;SDS011;70796;52.406;13.230;2023-06-19T05:31:58;19.10;;;16.97;;
4915;SDS011;70796;52.406;13.230;2023-06-19T05:34:24;19.63;;;17.60;;
4915;SDS011;70796;52.406;13.230;2023-06-19T05:36:51;20.40;;;17.10;;
4915;SDS011;70796;52.406;13.230;2023-06-19T05:39:17;20.00;;;17.90;;
4915;SDS011;70796;52.406;13.230;2023-06-19T05:41:45;21.60;;;17.73;;
4915;SDS011;70796;52.406;13.230;2023-06-19T05:44:14;19.27;;;17.10;;
4915;SDS011;70796;52.406;13.230;2023-06-19T05:46:44;19.83;;;17.83;;
4915;SDS011;70796;52.406;13.230;2023-06-19T05:49:10;20.93;;;18.50;;
4915;SDS011;70796;52.406;13.230;2023-06-19T05:51:37;20.63;;;18.53;;
4915;SDS011;70796;52.406;13.230;2023-06-19T05:54:03;20.10;;;17.90;;
4915;SDS011;70796;52.406;13.230;2023-06-19T05:56:30;19.67;;;17.67;;
4915;SDS011;70796;52.406;13.230;2023-06-19T05:59:02;20.30;;;18.30;;
4915;SDS011;70796;52.406;13.230;2023-06-19T06:01:28;23.20;;;18.20;;
4915;SDS011;70796;52.406;13.230;2023-06-19T06:03:55;23.20;;;18.03;;
4915;SDS011;70796;52.406;13.230;2023-06-19T06:06:22;22.40;;;17.17;;
4915;SDS011;70796;52.406;13.230;2023-06-19T06:08:49;18.07;;;15.97;;
4915;SDS011;70796;52.406;13.230;2023-06-19T06:11:17;22.47;;;16.30;;
4915;SDS011;70796;52.406;13.230;2023-06-19T06:13:44;17.00;;;15.40;;
4915;SDS011;70796;52.406;13.230;2023-06-19T06:16:10;19.87;;;17.33;;
4915;SDS011;70796;52.406;13.230;2023-06-19T06:18:36;18.40;;;16.43;;
4915;SDS011;70796;52.406;13.230;2023-06-19T06:21:02;17.80;;;15.67;;
4915;SDS011;70796;52.406;13.230;2023-06-19T06:23:30;18.03;;;16.23;;
4915;SDS011;70796;52.406;13.230;2023-06-19T06:25:56;17.73;;;16.00;;
4915;SDS011;70796;52.406;13.230;2023-06-19T06:28:28;17.90;;;16.10;;
4915;SDS011;70796;52.406;13.230;2023-06-19T06:30:54;19.50;;;17.50;;
4915;SDS011;70796;52.406;13.230;2023-06-19T06:33:21;18.30;;;16.40;;
4915;SDS011;70796;52.406;13.230;2023-06-19T06:35:48;19.40;;;17.03;;
4915;SDS011;70796;52.406;13.230;2023-06-19T06:38:14;19.43;;;16.80;;
4915;SDS011;70796;52.406;13.230;2023-06-19T06:40:41;19.47;;;17.47;;
4915;SDS011;70796;52.406;13.230;2023-06-19T06:43:08;18.00;;;15.90;;
4915;SDS011;70796;52.406;13.230;2023-06-19T06:45:36;19.60;;;17.40;;
4915;SDS011;70796;52.406;13.230;2023-06-19T06:48:04;19.73;;;16.77;;
4915;SDS011;70796;52.406;13.230;2023-06-19T06:50:33;18.30;;;16.40;;
4915;SDS011;70796;52.406;13.230;2023-06-19T06:52:59;17.20;;;15.37;;
4915;SDS011;70796;52.406;13.230;2023-06-19T06:55:26;18.47;;;15.87;;
4915;SDS011;70796;52.406;13.230;2023-06-19T06:57:52;23.17;;;17.70;;
4915;SDS011;70796;52.406;13.230;2023-06-19T07:00:18;18.00;;;16.10;;
4915;SDS011;70796;52.406;13.230;2023-06-19T07:02:44;24.53;;;16.40;;
4915;SDS011;70796;52.406;13.230;2023-06-19T07:05:14;21.50;;;16.50;;
4915;SDS011;70796;52.406;13.230;2023-06-19T07:07:40;18.93;;;16.93;;
4915;SDS011;70796;52.406;13.230;2023-06-19T07:10:07;18.37;;;16.50;;
4915;SDS011;70796;52.406;13.230;2023-06-19T07:12:34;17.90;;;16.00;;
4915;SDS011;70796;52.406;13.230;2023-06-19T07:15:01;17.37;;;15.27;;
4915;SDS011;70796;52.406;13.230;2023-06-19T07:17:27;18.83;;;16.53;;
4915;SDS011;70796;52.406;13.230;2023-06-19T07:19:53;17.37;;;14.83;;
4915;SDS011;70796;52.406;13.230;2023-06-19T07:22:19;19.27;;;14.70;;
4915;SDS011;70796;52.406;13.230;2023-06-19T07:24:46;15.50;;;13.90;;
4915;SDS011;70796;52.406;13.230;2023-06-19T07:27:12;18.10;;;13.40;;
4915;SDS011;70796;52.406;13.230;2023-06-19T07:29:38;17.13;;;14.13;;
4915;SDS011;70796;52.406;13.230;2023-06-19T07:32:04;16.60;;;14.90;;
4915;SDS011;70796;52.406;13.230;2023-06-19T07:34:31;19.40;;;13.90;;
4915;SDS011;70796;52.406;13.230;2023-06-19T07:36:57;15.37;;;13.80;;
4915;SDS011;70796;52.406;13.230;2023-06-19T07:39:24;16.43;;;14.73;;
4915;SDS011;70796;52.406;13.230;2023-06-19T07:41:50;15.87;;;14.47;;
4915;SDS011;70796;52.406;13.230;2023-06-19T07:44:16;18.40;;;14.80;;
4915;SDS011;70796;52.406;13.230;2023-06-19T07:46:43;15.90;;;14.37;;
4915;SDS011;70796;52.406;13.230;2023-06-19T07:49:10;19.00;;;14.10;;
4915;SDS011;70796;52.406;13.230;2023-06-19T07:51:36;14.60;;;13.10;;
4915;SDS011;70796;52.406;13.230;2023-06-19T07:54:02;14.30;;;12.80;;
4915;SDS011;70796;52.406;13.230;2023-06-19T07:56:28;14.53;;;13.00;;
4915;SDS011;70796;52.406;13.230;2023-06-19T07:58:55;15.40;;;13.70;;
4915;SDS011;70796;52.406;13.230;2023-06-19T08:01:21;19.80;;;13.53;;
4915;SDS011;70796;52.406;13.230;2023-06-19T08:03:47;13.43;;;12.03;;
4915;SDS011;70796;52.406;13.230;2023-06-19T08:06:14;14.27;;;12.60;;
4915;SDS011;70796;52.406;13.230;2023-06-19T08:08:40;14.43;;;12.97;;
4915;SDS011;70796;52.406;13.230;2023-06-19T08:11:07;14.03;;;12.37;;
4915;SDS011;70796;52.406;13.230;2023-06-19T08:13:33;14.10;;;12.53;;
4915;SDS011;70796;52.406;13.230;2023-06-19T08:15:59;17.20;;;13.00;;
4915;SDS011;70796;52.406;13.230;2023-06-19T08:18:27;16.17;;;12.47;;
4915;SDS011;70796;52.406;13.230;2023-06-19T08:20:54;14.10;;;12.60;;
4915;SDS011;70796;52.406;13.230;2023-06-19T08:23:21;15.60;;;12.80;;
4915;SDS011;70796;52.406;13.230;2023-06-19T08:25:48;14.30;;;12.90;;
4915;SDS011;70796;52.406;13.230;2023-06-19T08:28:19;15.43;;;13.83;;
4915;SDS011;70796;52.406;13.230;2023-06-19T08:30:46;15.53;;;13.90;;
4915;SDS011;70796;52.406;13.230;2023-06-19T08:33:13;15.40;;;12.37;;
4915;SDS011;70796;52.406;13.230;2023-06-19T08:35:39;13.90;;;12.57;;
4915;SDS011;70796;52.406;13.230;2023-06-19T08:38:06;15.17;;;11.43;;
4915;SDS011;70796;52.406;13.230;2023-06-19T08:40:33;15.00;;;13.50;;
4915;SDS011;70796;52.406;13.230;2023-06-19T08:42:59;19.80;;;12.47;;
4915;SDS011;70796;52.406;13.230;2023-06-19T08:45:26;13.43;;;12.03;;
4915;SDS011;70796;52.406;13.230;2023-06-19T08:48:00;14.57;;;13.07;;
4915;SDS011;70796;52.406;13.230;2023-06-19T08:50:35;13.90;;;12.43;;
4915;SDS011;70796;52.406;13.230;2023-06-19T08:53:02;14.30;;;12.00;;
4915;SDS011;70796;52.406;13.230;2023-06-19T08:55:28;16.93;;;12.23;;
4915;SDS011;70796;52.406;13.230;2023-06-19T08:57:54;17.40;;;13.20;;
4915;SDS011;70796;52.406;13.230;2023-06-19T09:00:28;14.17;;;12.77;;
4915;SDS011;70796;52.406;13.230;2023-06-19T09:02:59;15.23;;;13.40;;
4915;SDS011;70796;52.406;13.230;2023-06-19T09:05:40;20.60;;;13.70;;
4915;SDS011;70796;52.406;13.230;2023-06-19T09:08:12;18.90;;;13.00;;
4915;SDS011;70796;52.406;13.230;2023-06-19T09:10:39;19.53;;;13.13;;
4915;SDS011;70796;52.406;13.230;2023-06-19T09:13:05;20.17;;;12.83;;
4915;SDS011;70796;52.406;13.230;2023-06-19T09:15:33;14.50;;;13.10;;
4915;SDS011;70796;52.406;13.230;2023-06-19T09:18:07;18.83;;;13.33;;
4915;SDS011;70796;52.406;13.230;2023-06-19T09:20:38;13.80;;;12.40;;
4915;SDS011;70796;52.406;13.230;2023-06-19T09:23:11;12.93;;;11.43;;
4915;SDS011;70796;52.406;13.230;2023-06-19T09:25:51;13.13;;;11.83;;
4915;SDS011;70796;52.406;13.230;2023-06-19T09:28:24;13.47;;;12.10;;
4915;SDS011;70796;52.406;13.230;2023-06-19T09:30:53;12.13;;;10.93;;
4915;SDS011;70796;52.406;13.230;2023-06-19T09:33:28;13.87;;;12.37;;
4915;SDS011;70796;52.406;13.230;2023-06-19T09:35:58;15.67;;;13.60;;
4915;SDS011;70796;52.406;13.230;2023-06-19T09:38:26;15.60;;;14.00;;
4915;SDS011;70796;52.406;13.230;2023-06-19T09:40:54;14.87;;;13.23;;
4915;SDS011;70796;52.406;13.230;2023-06-19T09:43:23;17.10;;;13.40;;
4915;SDS011;70796;52.406;13.230;2023-06-19T09:46:13;16.23;;;12.50;;
4915;SDS011;70796;52.406;13.230;2023-06-19T09:48:41;17.10;;;13.07;;
4915;SDS011;70796;52.406;13.230;2023-06-19T09:51:16;16.30;;;12.90;;
4915;SDS011;70796;52.406;13.230;2023-06-19T09:53:51;13.03;;;11.70;;
4915;SDS011;70796;52.406;13.230;2023-06-19T09:56:18;15.30;;;13.37;;
4915;SDS011;70796;52.406;13.230;2023-06-19T09:58:49;15.23;;;13.03;;
4915;SDS011;70796;52.406;13.230;2023-06-19T10:01:17;13.43;;;12.20;;
4915;SDS011;70796;52.406;13.230;2023-06-19T10:04:01;14.00;;;12.70;;
4915;SDS011;70796;52.406;13.230;2023-06-19T10:06:31;15.00;;;13.43;;
4915;SDS011;70796;52.406;13.230;2023-06-19T10:09:06;15.07;;;13.57;;
4915;SDS011;70796;52.406;13.230;2023-06-19T10:11:47;16.70;;;13.20;;
4915;SDS011;70796;52.406;13.230;2023-06-19T10:14:21;15.47;;;13.80;;
4915;SDS011;70796;52.406;13.230;2023-06-19T10:16:51;20.30;;;13.90;;
4915;SDS011;70796;52.406;13.230;2023-06-19T10:19:21;15.80;;;13.73;;
4915;SDS011;70796;52.406;13.230;2023-06-19T10:21:48;16.03;;;13.53;;
4915;SDS011;70796;52.406;13.230;2023-06-19T10:24:18;15.73;;;13.90;;
4915;SDS011;70796;52.406;13.230;2023-06-19T10:26:57;17.97;;;13.40;;
4915;SDS011;70796;52.406;13.230;2023-06-19T10:29:38;14.70;;;12.10;;
4915;SDS011;70796;52.406;13.230;2023-06-19T10:32:18;19.00;;;13.80;;
4915;SDS011;70796;52.406;13.230;2023-06-19T10:34:45;15.40;;;13.60;;
4915;SDS011;70796;52.406;13.230;2023-06-19T10:37:15;17.03;;;13.83;;
4915;SDS011;70796;52.406;13.230;2023-06-19T10:39:42;20.00;;;15.10;;
4915;SDS011;70796;52.406;13.230;2023-06-19T10:42:09;21.43;;;13.90;;
4915;SDS011;70796;52.406;13.230;2023-06-19T10:44:36;15.90;;;13.53;;
4915;SDS011;70796;52.406;13.230;2023-06-19T10:47:05;16.03;;;14.33;;
4915;SDS011;70796;52.406;13.230;2023-06-19T10:49:33;14.27;;;12.77;;
4915;SDS011;70796;52.406;13.230;2023-06-19T10:52:01;14.10;;;12.70;;
4915;SDS011;70796;52.406;13.230;2023-06-19T10:54:30;25.10;;;13.23;;
4915;SDS011;70796;52.406;13.230;2023-06-19T10:56:58;16.90;;;13.37;;
4915;SDS011;70796;52.406;13.230;2023-06-19T10:59:29;22.63;;;11.93;;
4915;SDS011;70796;52.406;13.230;2023-06-19T11:01:58;14.27;;;12.87;;
4915;SDS011;70796;52.406;13.230;2023-06-19T11:04:26;16.43;;;12.53;;
4915;SDS011;70796;52.406;13.230;2023-06-19T11:06:54;13.70;;;12.20;;
4915;SDS011;70796;52.406;13.230;2023-06-19T11:09:20;18.50;;;12.77;;
4915;SDS011;70796;52.406;13.230;2023-06-19T11:11:48;13.17;;;11.87;;
4915;SDS011;70796;52.406;13.230;2023-06-19T11:14:15;18.33;;;11.40;;
4915;SDS011;70796;52.406;13.230;2023-06-19T11:16:43;13.00;;;11.70;;
4915;SDS011;70796;52.406;13.230;2023-06-19T11:19:15;18.20;;;12.00;;
4915;SDS011;70796;52.406;13.230;2023-06-19T11:21:44;17.37;;;12.63;;
4915;SDS011;70796;52.406;13.230;2023-06-19T11:24:13;14.67;;;11.23;;
4915;SDS011;70796;52.406;13.230;2023-06-19T11:26:41;12.67;;;11.10;;
4915;SDS011;70796;52.406;13.230;2023-06-19T11:29:54;13.47;;;12.00;;
4915;SDS011;70796;52.406;13.230;2023-06-19T11:32:13;14.23;;;11.57;;
4915;SDS011;70796;52.406;13.230;2023-06-19T11:34:40;16.63;;;11.30;;
4915;SDS011;70796;52.406;13.230;2023-06-19T11:37:17;12.70;;;11.30;;
4915;SDS011;70796;52.406;13.230;2023-06-19T11:39:49;11.80;;;10.57;;
4915;SDS011;70796;52.406;13.230;2023-06-19T11:42:17;12.30;;;11.00;;
4915;SDS011;70796;52.406;13.230;2023-06-19T11:44:56;12.63;;;9.80;;
4915;SDS011;70796;52.406;13.230;2023-06-19T11:47:26;11.50;;;10.30;;
4915;SDS011;70796;52.406;13.230;2023-06-19T11:49:53;10.07;;;9.17;;
4915;SDS011;70796;52.406;13.230;2023-06-19T11:52:20;9.70;;;8.67;;
4915;SDS011;70796;52.406;13.230;2023-06-19T11:54:46;10.40;;;9.40;;
4915;SDS011;70796;52.406;13.230;2023-06-19T11:57:13;11.93;;;9.53;;
4915;SDS011;70796;52.406;13.230;2023-06-19T11:59:40;9.53;;;8.60;;
4915;SDS011;70796;52.406;13.230;2023-06-19T12:02:07;11.03;;;9.80;;
4915;SDS011;70796;52.406;13.230;2023-06-19T12:04:34;12.27;;;9.90;;
4915;SDS011;70796;52.406;13.230;2023-06-19T12:07:03;11.03;;;9.93;;
4915;SDS011;70796;52.406;13.230;2023-06-19T12:09:30;15.57;;;9.63;;
4915;SDS011;70796;52.406;13.230;2023-06-19T12:11:58;11.77;;;9.70;;
4915;SDS011;70796;52.406;13.230;2023-06-19T12:14:24;12.60;;;9.87;;
4915;SDS011;70796;52.406;13.230;2023-06-19T12:16:51;11.00;;;9.90;;
4915;SDS011;70796;52.406;13.230;2023-06-19T12:19:18;11.67;;;9.17;;
4915;SDS011;70796;52.406;13.230;2023-06-19T12:21:47;10.67;;;8.70;;
4915;SDS011;70796;52.406;13.230;2023-06-19T12:24:13;11.03;;;9.83;;
4915;SDS011;70796;52.406;13.230;2023-06-19T12:26:40;16.73;;;9.83;;
4915;SDS011;70796;52.406;13.230;2023-06-19T12:29:06;10.57;;;9.53;;
4915;SDS011;70796;52.406;13.230;2023-06-19T12:31:33;10.63;;;9.53;;
4915;SDS011;70796;52.406;13.230;2023-06-19T12:34:03;10.53;;;9.50;;
4915;SDS011;70796;52.406;13.230;2023-06-19T12:36:50;16.13;;;10.00;;
4915;SDS011;70796;52.406;13.230;2023-06-19T12:39:16;10.60;;;9.23;;
4915;SDS011;70796;52.406;13.230;2023-06-19T12:41:43;12.20;;;9.67;;
4915;SDS011;70796;52.406;13.230;2023-06-19T12:44:09;18.37;;;9.30;;
4915;SDS011;70796;52.406;13.230;2023-06-19T12:46:36;12.80;;;10.03;;
4915;SDS011;70796;52.406;13.230;2023-06-19T12:49:03;19.00;;;10.20;;
4915;SDS011;70796;52.406;13.230;2023-06-19T12:51:29;21.33;;;10.77;;
4915;SDS011;70796;52.406;13.230;2023-06-19T12:53:56;11.53;;;9.50;;
4915;SDS011;70796;52.406;13.230;2023-06-19T12:56:23;13.80;;;9.33;;
4915;SDS011;70796;52.406;13.230;2023-06-19T12:58:49;12.13;;;9.60;;
4915;SDS011;70796;52.406;13.230;2023-06-19T13:01:17;10.80;;;9.60;;
4915;SDS011;70796;52.406;13.230;2023-06-19T13:03:44;10.37;;;9.37;;
4915;SDS011;70796;52.406;13.230;2023-06-19T13:06:11;11.33;;;9.97;;
4915;SDS011;70796;52.406;13.230;2023-06-19T13:08:38;12.60;;;9.43;;
4915;SDS011;70796;52.406;13.230;2023-06-19T13:11:04;19.47;;;9.10;;
4915;SDS011;70796;52.406;13.230;2023-06-19T13:13:31;10.40;;;9.20;;
4915;SDS011;70796;52.406;13.230;2023-06-19T13:15:57;14.03;;;8.60;;
4915;SDS011;70796;52.406;13.230;2023-06-19T13:18:24;10.60;;;8.90;;
4915;SDS011;70796;52.406;13.230;2023-06-19T13:20:51;11.20;;;9.03;;
4915;SDS011;70796;52.406;13.230;2023-06-19T13:23:17;9.97;;;8.97;;
4915;SDS011;70796;52.406;13.230;2023-06-19T13:25:43;10.53;;;9.30;;
4915;SDS011;70796;52.406;13.230;2023-06-19T13:28:10;9.70;;;8.87;;
4915;SDS011;70796;52.406;13.230;2023-06-19T13:30:36;9.43;;;8.53;;
4915;SDS011;70796;52.406;13.230;2023-06-19T13:33:03;13.23;;;8.70;;
4915;SDS011;70796;52.406;13.230;2023-06-19T13:35:30;11.40;;;9.03;;
4915;SDS011;70796;52.406;13.230;2023-06-19T13:37:59;9.87;;;9.07;;
4915;SDS011;70796;52.406;13.230;2023-06-19T13:40:26;10.00;;;9.00;;
4915;SDS011;70796;52.406;13.230;2023-06-19T13:42:52;9.87;;;8.97;;
4915;SDS011;70796;52.406;13.230;2023-06-19T13:45:19;17.77;;;9.37;;
4915;SDS011;70796;52.406;13.230;2023-06-19T13:47:45;12.73;;;8.97;;
4915;SDS011;70796;52.406;13.230;2023-06-19T13:50:11;10.20;;;8.87;;
4915;SDS011;70796;52.406;13.230;2023-06-19T13:52:45;12.33;;;9.13;;
4915;SDS011;70796;52.406;13.230;2023-06-19T13:55:14;10.13;;;9.13;;
4915;SDS011;70796;52.406;13.230;2023-06-19T13:57:42;10.03;;;9.03;;
4915;SDS011;70796;52.406;13.230;2023-06-19T14:00:09;12.60;;;9.10;;
4915;SDS011;70796;52.406;13.230;2023-06-19T14:02:40;9.03;;;7.90;;
4915;SDS011;70796;52.406;13.230;2023-06-19T14:05:08;11.20;;;8.63;;
4915;SDS011;70796;52.406;13.230;2023-06-19T14:07:36;10.83;;;8.40;;
4915;SDS011;70796;52.406;13.230;2023-06-19T14:10:03;9.37;;;8.37;;
4915;SDS011;70796;52.406;13.230;2023-06-19T14:12:31;8.87;;;8.07;;
4915;SDS011;70796;52.406;13.230;2023-06-19T14:14:57;8.87;;;7.97;;
4915;SDS011;70796;52.406;13.230;2023-06-19T14:17:24;9.37;;;8.33;;
4915;SDS011;70796;52.406;13.230;2023-06-19T14:19:51;12.37;;;9.17;;
4915;SDS011;70796;52.406;13.230;2023-06-19T14:22:19;9.40;;;8.50;;
4915;SDS011;70796;52.406;13.230;2023-06-19T14:24:46;9.50;;;8.60;;
4915;SDS011;70796;52.406;13.230;2023-06-19T14:27:13;10.77;;;8.70;;